sensor_id;sensor_type;location;lat;lon;timestamp;P1;durP1;ratioP1;P2;durP2;ratioP2
22160;SDS011;49035;48.812;11.762;2023-07-28T00:01:28;9.07;;;7.68;;
22160;SDS011;49035;48.812;11.762;2023-07-28T00:03:53;19.92;;;9.93;;
22160;SDS011;49035;48.812;11.762;2023-07-28T00:06:19;9.90;;;7.72;;
22160;SDS011;49035;48.812;11.762;2023-07-28T00:08:44;12.18;;;7.57;;
22160;SDS011;49035;48.812;11.762;2023-07-28T00:11:10;11.27;;;7.95;;
22160;SDS011;49035;48.812;11.762;2023-07-28T00:13:37;12.38;;;8.40;;
22160;SDS011;49035;48.812;11.762;2023-07-28T00:16:03;11.85;;;8.18;;
22160;SDS011;49035;48.812;11.762;2023-07-28T00:18:30;13.15;;;8.02;;
22160;SDS011;49035;48.812;11.762;2023-07-28T00:20:55;11.55;;;7.57;;
22160;SDS011;49035;48.812;11.762;2023-07-28T00:23:21;11.98;;;7.53;;
22160;SDS011;49035;48.812;11.762;2023-07-28T00:25:46;13.10;;;9.68;;
22160;SDS011;49035;48.812;11.762;2023-07-28T00:28:12;12.07;;;7.97;;
22160;SDS011;49035;48.812;11.762;2023-07-28T00:30:38;11.43;;;8.27;;
22160;SDS011;49035;48.812;11.762;2023-07-28T00:33:04;10.27;;;7.65;;
22160;SDS011;49035;48.812;11.762;2023-07-28T00:35:30;15.73;;;8.07;;
22160;SDS011;49035;48.812;11.762;2023-07-28T00:37:55;14.93;;;7.90;;
22160;SDS011;49035;48.812;11.762;2023-07-28T00:40:22;11.45;;;7.13;;
22160;SDS011;49035;48.812;11.762;2023-07-28T00:42:47;9.43;;;7.28;;
22160;SDS011;49035;48.812;11.762;2023-07-28T00:45:13;10.65;;;7.53;;
22160;SDS011;49035;48.812;11.762;2023-07-28T00:47:39;10.57;;;7.82;;
22160;SDS011;49035;48.812;11.762;2023-07-28T00:50:05;9.32;;;7.38;;
22160;SDS011;49035;48.812;11.762;2023-07-28T00:52:32;10.38;;;7.95;;
22160;SDS011;49035;48.812;11.762;2023-07-28T00:54:57;9.88;;;7.13;;
22160;SDS011;49035;48.812;11.762;2023-07-28T00:57:23;10.43;;;6.88;;
22160;SDS011;49035;48.812;11.762;2023-07-28T00:59:48;9.80;;;6.85;;
22160;SDS011;49035;48.812;11.762;2023-07-28T01:02:14;10.48;;;6.75;;
22160;SDS011;49035;48.812;11.762;2023-07-28T01:04:39;9.20;;;7.60;;
22160;SDS011;49035;48.812;11.762;2023-07-28T01:07:11;8.45;;;6.80;;
22160;SDS011;49035;48.812;11.762;2023-07-28T01:10:25;9.30;;;7.00;;
22160;SDS011;49035;48.812;11.762;2023-07-28T01:12:33;11.18;;;6.75;;
22160;SDS011;49035;48.812;11.762;2023-07-28T01:14:59;8.50;;;6.20;;
22160;SDS011;49035;48.812;11.762;2023-07-28T01:17:24;11.10;;;7.55;;
22160;SDS011;49035;48.812;11.762;2023-07-28T01:19:51;12.95;;;7.30;;
22160;SDS011;49035;48.812;11.762;2023-07-28T01:25:18;11.52;;;6.82;;
22160;SDS011;49035;48.812;11.762;2023-07-28T01:27:58;14.65;;;6.80;;
22160;SDS011;49035;48.812;11.762;2023-07-28T01:30:25;8.93;;;7.53;;
22160;SDS011;49035;48.812;11.762;2023-07-28T01:32:55;9.15;;;7.22;;
22160;SDS011;49035;48.812;11.762;2023-07-28T01:35:22;10.57;;;6.63;;
22160;SDS011;49035;48.812;11.762;2023-07-28T01:37:48;13.10;;;7.55;;
22160;SDS011;49035;48.812;11.762;2023-07-28T01:40:18;10.88;;;6.38;;
22160;SDS011;49035;48.812;11.762;2023-07-28T01:42:44;7.30;;;5.90;;
22160;SDS011;49035;48.812;11.762;2023-07-28T01:45:10;7.63;;;5.72;;
22160;SDS011;49035;48.812;11.762;2023-07-28T01:47:36;9.18;;;7.20;;
22160;SDS011;49035;48.812;11.762;2023-07-28T01:50:02;5.82;;;4.63;;
22160;SDS011;49035;48.812;11.762;2023-07-28T01:52:27;6.90;;;5.47;;
22160;SDS011;49035;48.812;11.762;2023-07-28T01:54:53;8.23;;;6.20;;
22160;SDS011;49035;48.812;11.762;2023-07-28T01:57:18;7.85;;;6.18;;
22160;SDS011;49035;48.812;11.762;2023-07-28T01:59:44;9.70;;;6.75;;
22160;SDS011;49035;48.812;11.762;2023-07-28T02:02:10;11.70;;;6.15;;
22160;SDS011;49035;48.812;11.762;2023-07-28T02:04:35;11.68;;;6.60;;
22160;SDS011;49035;48.812;11.762;2023-07-28T02:07:01;4.47;;;3.92;;
22160;SDS011;49035;48.812;11.762;2023-07-28T02:09:26;6.07;;;4.50;;
22160;SDS011;49035;48.812;11.762;2023-07-28T02:11:52;5.28;;;4.75;;
22160;SDS011;49035;48.812;11.762;2023-07-28T02:14:18;7.53;;;4.72;;
22160;SDS011;49035;48.812;11.762;2023-07-28T02:16:44;2.80;;;2.58;;
22160;SDS011;49035;48.812;11.762;2023-07-28T02:19:09;6.57;;;4.93;;
22160;SDS011;49035;48.812;11.762;2023-07-28T02:21:35;6.55;;;5.82;;
22160;SDS011;49035;48.812;11.762;2023-07-28T02:24:00;6.07;;;4.95;;
22160;SDS011;49035;48.812;11.762;2023-07-28T02:26:26;7.43;;;5.28;;
22160;SDS011;49035;48.812;11.762;2023-07-28T02:28:52;27.70;;;6.90;;
22160;SDS011;49035;48.812;11.762;2023-07-28T02:31:18;13.13;;;6.18;;
22160;SDS011;49035;48.812;11.762;2023-07-28T02:33:43;7.15;;;5.20;;
22160;SDS011;49035;48.812;11.762;2023-07-28T02:36:09;7.82;;;5.53;;
22160;SDS011;49035;48.812;11.762;2023-07-28T02:38:34;8.88;;;5.97;;
22160;SDS011;49035;48.812;11.762;2023-07-28T02:41:00;5.97;;;5.20;;
22160;SDS011;49035;48.812;11.762;2023-07-28T02:43:28;6.88;;;4.97;;
22160;SDS011;49035;48.812;11.762;2023-07-28T02:45:54;10.55;;;4.53;;
22160;SDS011;49035;48.812;11.762;2023-07-28T02:48:21;4.35;;;3.95;;
22160;SDS011;49035;48.812;11.762;2023-07-28T02:50:48;6.65;;;3.78;;
22160;SDS011;49035;48.812;11.762;2023-07-28T02:53:15;2.63;;;2.42;;
22160;SDS011;49035;48.812;11.762;2023-07-28T02:55:41;4.40;;;3.60;;
22160;SDS011;49035;48.812;11.762;2023-07-28T02:58:07;6.43;;;4.90;;
22160;SDS011;49035;48.812;11.762;2023-07-28T03:00:33;6.50;;;5.10;;
22160;SDS011;49035;48.812;11.762;2023-07-28T03:03:01;8.75;;;5.43;;
22160;SDS011;49035;48.812;11.762;2023-07-28T03:05:27;8.23;;;6.28;;
22160;SDS011;49035;48.812;11.762;2023-07-28T03:07:53;11.18;;;6.53;;
22160;SDS011;49035;48.812;11.762;2023-07-28T03:10:18;9.43;;;6.65;;
22160;SDS011;49035;48.812;11.762;2023-07-28T03:12:44;22.17;;;6.70;;
22160;SDS011;49035;48.812;11.762;2023-07-28T03:15:10;7.18;;;5.47;;
22160;SDS011;49035;48.812;11.762;2023-07-28T03:17:35;7.20;;;5.47;;
22160;SDS011;49035;48.812;11.762;2023-07-28T03:20:01;6.18;;;5.28;;
22160;SDS011;49035;48.812;11.762;2023-07-28T03:22:26;6.50;;;4.93;;
22160;SDS011;49035;48.812;11.762;2023-07-28T03:24:52;6.95;;;5.55;;
22160;SDS011;49035;48.812;11.762;2023-07-28T03:27:17;8.77;;;5.43;;
22160;SDS011;49035;48.812;11.762;2023-07-28T03:29:43;7.85;;;5.28;;
22160;SDS011;49035;48.812;11.762;2023-07-28T03:32:09;6.32;;;4.90;;
22160;SDS011;49035;48.812;11.762;2023-07-28T03:34:34;11.02;;;5.20;;
22160;SDS011;49035;48.812;11.762;2023-07-28T03:37:00;43.10;;;5.20;;
22160;SDS011;49035;48.812;11.762;2023-07-28T03:39:25;8.63;;;4.63;;
22160;SDS011;49035;48.812;11.762;2023-07-28T03:41:51;9.23;;;6.20;;
22160;SDS011;49035;48.812;11.762;2023-07-28T03:44:16;5.00;;;4.50;;
22160;SDS011;49035;48.812;11.762;2023-07-28T03:46:44;8.68;;;5.53;;
22160;SDS011;49035;48.812;11.762;2023-07-28T03:49:10;46.95;;;5.93;;
22160;SDS011;49035;48.812;11.762;2023-07-28T03:51:35;3.38;;;3.08;;
22160;SDS011;49035;48.812;11.762;2023-07-28T03:54:01;6.20;;;4.07;;
22160;SDS011;49035;48.812;11.762;2023-07-28T03:56:27;6.07;;;4.00;;
22160;SDS011;49035;48.812;11.762;2023-07-28T03:58:53;4.60;;;3.67;;
22160;SDS011;49035;48.812;11.762;2023-07-28T04:01:19;5.05;;;3.47;;
22160;SDS011;49035;48.812;11.762;2023-07-28T04:03:46;6.88;;;4.55;;
22160;SDS011;49035;48.812;11.762;2023-07-28T04:06:12;9.77;;;5.20;;
22160;SDS011;49035;48.812;11.762;2023-07-28T04:08:38;7.10;;;5.35;;
22160;SDS011;49035;48.812;11.762;2023-07-28T04:11:04;8.73;;;4.78;;
22160;SDS011;49035;48.812;11.762;2023-07-28T04:13:30;7.82;;;5.72;;
22160;SDS011;49035;48.812;11.762;2023-07-28T04:15:56;6.35;;;4.68;;
22160;SDS011;49035;48.812;11.762;2023-07-28T04:18:21;5.30;;;4.43;;
22160;SDS011;49035;48.812;11.762;2023-07-28T04:20:48;5.50;;;4.35;;
22160;SDS011;49035;48.812;11.762;2023-07-28T04:23:13;7.25;;;5.43;;
22160;SDS011;49035;48.812;11.762;2023-07-28T04:25:39;6.75;;;5.22;;
22160;SDS011;49035;48.812;11.762;2023-07-28T04:28:04;9.18;;;4.72;;
22160;SDS011;49035;48.812;11.762;2023-07-28T04:30:30;5.63;;;4.70;;
22160;SDS011;49035;48.812;11.762;2023-07-28T04:32:59;7.07;;;5.63;;
22160;SDS011;49035;48.812;11.762;2023-07-28T04:35:24;8.10;;;5.55;;
22160;SDS011;49035;48.812;11.762;2023-07-28T04:37:50;6.95;;;4.85;;
22160;SDS011;49035;48.812;11.762;2023-07-28T04:40:15;8.48;;;4.28;;
22160;SDS011;49035;48.812;11.762;2023-07-28T04:42:41;5.57;;;5.00;;
22160;SDS011;49035;48.812;11.762;2023-07-28T04:45:07;5.82;;;4.28;;
22160;SDS011;49035;48.812;11.762;2023-07-28T04:47:33;6.18;;;5.40;;
22160;SDS011;49035;48.812;11.762;2023-07-28T04:49:59;5.35;;;4.80;;
22160;SDS011;49035;48.812;11.762;2023-07-28T04:52:24;6.20;;;4.75;;
22160;SDS011;49035;48.812;11.762;2023-07-28T04:54:50;5.72;;;4.78;;
22160;SDS011;49035;48.812;11.762;2023-07-28T04:57:15;4.55;;;3.63;;
22160;SDS011;49035;48.812;11.762;2023-07-28T04:59:43;7.03;;;3.38;;
22160;SDS011;49035;48.812;11.762;2023-07-28T05:02:08;4.47;;;3.35;;
22160;SDS011;49035;48.812;11.762;2023-07-28T05:04:34;5.65;;;3.40;;
22160;SDS011;49035;48.812;11.762;2023-07-28T05:07:01;4.53;;;3.10;;
22160;SDS011;49035;48.812;11.762;2023-07-28T05:09:27;5.28;;;3.58;;
22160;SDS011;49035;48.812;11.762;2023-07-28T05:11:53;4.95;;;2.95;;
22160;SDS011;49035;48.812;11.762;2023-07-28T05:14:20;5.07;;;3.00;;
22160;SDS011;49035;48.812;11.762;2023-07-28T05:16:45;3.70;;;2.50;;
22160;SDS011;49035;48.812;11.762;2023-07-28T05:19:12;4.38;;;3.10;;
22160;SDS011;49035;48.812;11.762;2023-07-28T05:21:38;3.20;;;2.90;;
22160;SDS011;49035;48.812;11.762;2023-07-28T05:24:03;6.00;;;2.63;;
22160;SDS011;49035;48.812;11.762;2023-07-28T05:26:29;4.68;;;3.00;;
22160;SDS011;49035;48.812;11.762;2023-07-28T05:28:55;3.30;;;2.80;;
22160;SDS011;49035;48.812;11.762;2023-07-28T05:31:20;5.65;;;3.00;;
22160;SDS011;49035;48.812;11.762;2023-07-28T05:33:46;3.40;;;2.63;;
22160;SDS011;49035;48.812;11.762;2023-07-28T05:36:11;3.22;;;2.55;;
22160;SDS011;49035;48.812;11.762;2023-07-28T05:38:37;5.32;;;3.30;;
22160;SDS011;49035;48.812;11.762;2023-07-28T05:41:03;3.70;;;3.13;;
22160;SDS011;49035;48.812;11.762;2023-07-28T05:43:29;6.72;;;3.53;;
22160;SDS011;49035;48.812;11.762;2023-07-28T05:45:56;4.85;;;2.95;;
22160;SDS011;49035;48.812;11.762;2023-07-28T05:48:22;5.43;;;3.08;;
22160;SDS011;49035;48.812;11.762;2023-07-28T05:50:48;4.45;;;3.35;;
22160;SDS011;49035;48.812;11.762;2023-07-28T05:53:13;5.10;;;3.00;;
22160;SDS011;49035;48.812;11.762;2023-07-28T05:55:39;4.63;;;3.45;;
22160;SDS011;49035;48.812;11.762;2023-07-28T05:58:05;4.05;;;3.65;;
22160;SDS011;49035;48.812;11.762;2023-07-28T06:00:31;3.95;;;3.50;;
22160;SDS011;49035;48.812;11.762;2023-07-28T06:02:56;4.13;;;3.72;;
22160;SDS011;49035;48.812;11.762;2023-07-28T06:05:22;5.07;;;3.70;;
22160;SDS011;49035;48.812;11.762;2023-07-28T06:07:48;5.10;;;3.50;;
22160;SDS011;49035;48.812;11.762;2023-07-28T06:10:13;5.32;;;3.80;;
22160;SDS011;49035;48.812;11.762;2023-07-28T06:12:39;4.97;;;3.65;;
22160;SDS011;49035;48.812;11.762;2023-07-28T06:15:05;5.75;;;3.65;;
22160;SDS011;49035;48.812;11.762;2023-07-28T06:17:31;5.85;;;3.85;;
22160;SDS011;49035;48.812;11.762;2023-07-28T06:19:57;6.93;;;3.58;;
22160;SDS011;49035;48.812;11.762;2023-07-28T06:22:22;3.85;;;3.20;;
22160;SDS011;49035;48.812;11.762;2023-07-28T06:24:48;6.45;;;3.80;;
22160;SDS011;49035;48.812;11.762;2023-07-28T06:27:13;4.38;;;3.28;;
22160;SDS011;49035;48.812;11.762;2023-07-28T06:29:39;3.95;;;3.35;;
22160;SDS011;49035;48.812;11.762;2023-07-28T06:32:05;3.83;;;3.10;;
22160;SDS011;49035;48.812;11.762;2023-07-28T06:34:31;4.18;;;3.20;;
22160;SDS011;49035;48.812;11.762;2023-07-28T06:36:56;6.88;;;3.90;;
22160;SDS011;49035;48.812;11.762;2023-07-28T06:39:22;4.75;;;4.13;;
22160;SDS011;49035;48.812;11.762;2023-07-28T06:41:49;6.00;;;4.65;;
22160;SDS011;49035;48.812;11.762;2023-07-28T06:44:15;6.10;;;4.63;;
22160;SDS011;49035;48.812;11.762;2023-07-28T06:46:41;5.40;;;4.43;;
22160;SDS011;49035;48.812;11.762;2023-07-28T06:49:06;8.30;;;4.90;;
22160;SDS011;49035;48.812;11.762;2023-07-28T06:51:32;6.07;;;4.50;;
22160;SDS011;49035;48.812;11.762;2023-07-28T06:53:58;5.22;;;4.72;;
22160;SDS011;49035;48.812;11.762;2023-07-28T06:56:24;5.45;;;4.43;;
22160;SDS011;49035;48.812;11.762;2023-07-28T06:58:50;5.07;;;4.53;;
22160;SDS011;49035;48.812;11.762;2023-07-28T07:01:16;6.63;;;4.82;;
22160;SDS011;49035;48.812;11.762;2023-07-28T07:03:43;4.75;;;4.20;;
22160;SDS011;49035;48.812;11.762;2023-07-28T07:06:08;5.25;;;4.72;;
22160;SDS011;49035;48.812;11.762;2023-07-28T07:08:34;6.30;;;5.68;;
22160;SDS011;49035;48.812;11.762;2023-07-28T07:10:59;5.70;;;5.10;;
22160;SDS011;49035;48.812;11.762;2023-07-28T07:13:25;6.53;;;5.50;;
22160;SDS011;49035;48.812;11.762;2023-07-28T07:15:51;6.25;;;4.88;;
22160;SDS011;49035;48.812;11.762;2023-07-28T07:18:16;7.15;;;4.88;;
22160;SDS011;49035;48.812;11.762;2023-07-28T07:20:42;5.88;;;5.20;;
22160;SDS011;49035;48.812;11.762;2023-07-28T07:23:08;6.40;;;5.15;;
22160;SDS011;49035;48.812;11.762;2023-07-28T07:25:33;7.43;;;5.47;;
22160;SDS011;49035;48.812;11.762;2023-07-28T07:27:59;5.60;;;5.00;;
22160;SDS011;49035;48.812;11.762;2023-07-28T07:30:24;10.05;;;5.53;;
22160;SDS011;49035;48.812;11.762;2023-07-28T07:32:50;5.43;;;4.82;;
22160;SDS011;49035;48.812;11.762;2023-07-28T07:35:16;5.00;;;4.50;;
22160;SDS011;49035;48.812;11.762;2023-07-28T07:37:41;5.15;;;4.43;;
22160;SDS011;49035;48.812;11.762;2023-07-28T07:40:07;9.40;;;4.82;;
22160;SDS011;49035;48.812;11.762;2023-07-28T07:42:47;8.02;;;4.70;;
22160;SDS011;49035;48.812;11.762;2023-07-28T07:45:13;9.00;;;4.40;;
22160;SDS011;49035;48.812;11.762;2023-07-28T07:47:40;6.30;;;4.18;;
22160;SDS011;49035;48.812;11.762;2023-07-28T07:50:06;7.38;;;4.10;;
22160;SDS011;49035;48.812;11.762;2023-07-28T07:52:36;6.72;;;3.92;;
22160;SDS011;49035;48.812;11.762;2023-07-28T07:55:03;4.50;;;3.80;;
22160;SDS011;49035;48.812;11.762;2023-07-28T07:57:29;5.03;;;4.15;;
22160;SDS011;49035;48.812;11.762;2023-07-28T07:59:56;5.72;;;4.55;;
22160;SDS011;49035;48.812;11.762;2023-07-28T08:02:24;6.90;;;4.07;;
22160;SDS011;49035;48.812;11.762;2023-07-28T08:04:51;5.03;;;2.97;;
22160;SDS011;49035;48.812;11.762;2023-07-28T08:07:18;4.65;;;3.42;;
22160;SDS011;49035;48.812;11.762;2023-07-28T08:09:44;5.53;;;3.70;;
22160;SDS011;49035;48.812;11.762;2023-07-28T08:12:10;4.82;;;4.32;;
22160;SDS011;49035;48.812;11.762;2023-07-28T08:14:37;4.07;;;3.67;;
22160;SDS011;49035;48.812;11.762;2023-07-28T08:17:03;7.00;;;3.83;;
22160;SDS011;49035;48.812;11.762;2023-07-28T08:19:29;5.68;;;3.42;;
22160;SDS011;49035;48.812;11.762;2023-07-28T08:21:54;6.57;;;3.65;;
22160;SDS011;49035;48.812;11.762;2023-07-28T08:24:20;3.90;;;3.55;;
22160;SDS011;49035;48.812;11.762;2023-07-28T08:26:45;5.30;;;3.97;;
22160;SDS011;49035;48.812;11.762;2023-07-28T08:29:11;5.35;;;3.55;;
22160;SDS011;49035;48.812;11.762;2023-07-28T08:31:36;4.40;;;3.40;;
22160;SDS011;49035;48.812;11.762;2023-07-28T08:34:02;4.93;;;3.33;;
22160;SDS011;49035;48.812;11.762;2023-07-28T08:36:28;3.65;;;3.08;;
22160;SDS011;49035;48.812;11.762;2023-07-28T08:38:53;3.47;;;3.15;;
22160;SDS011;49035;48.812;11.762;2023-07-28T08:41:19;3.47;;;2.95;;
22160;SDS011;49035;48.812;11.762;2023-07-28T08:43:45;6.78;;;3.60;;
22160;SDS011;49035;48.812;11.762;2023-07-28T08:46:10;3.97;;;3.10;;
22160;SDS011;49035;48.812;11.762;2023-07-28T08:48:36;4.43;;;3.55;;
22160;SDS011;49035;48.812;11.762;2023-07-28T08:51:02;5.68;;;3.90;;
22160;SDS011;49035;48.812;11.762;2023-07-28T08:53:29;3.67;;;3.20;;
22160;SDS011;49035;48.812;11.762;2023-07-28T08:55:55;5.20;;;3.38;;
22160;SDS011;49035;48.812;11.762;2023-07-28T08:58:22;4.05;;;3.15;;
22160;SDS011;49035;48.812;11.762;2023-07-28T09:00:49;7.07;;;3.38;;
22160;SDS011;49035;48.812;11.762;2023-07-28T09:03:16;7.50;;;3.33;;
22160;SDS011;49035;48.812;11.762;2023-07-28T09:05:45;4.70;;;3.15;;
22160;SDS011;49035;48.812;11.762;2023-07-28T09:08:14;4.57;;;3.15;;
22160;SDS011;49035;48.812;11.762;2023-07-28T09:10:45;3.42;;;2.63;;
22160;SDS011;49035;48.812;11.762;2023-07-28T09:13:12;3.97;;;3.13;;
22160;SDS011;49035;48.812;11.762;2023-07-28T09:15:38;6.57;;;2.95;;
22160;SDS011;49035;48.812;11.762;2023-07-28T09:18:07;3.85;;;2.88;;
22160;SDS011;49035;48.812;11.762;2023-07-28T09:20:40;3.17;;;2.63;;
22160;SDS011;49035;48.812;11.762;2023-07-28T09:23:06;3.17;;;2.63;;
22160;SDS011;49035;48.812;11.762;2023-07-28T09:25:33;4.60;;;3.00;;
22160;SDS011;49035;48.812;11.762;2023-07-28T09:28:02;3.10;;;2.80;;
22160;SDS011;49035;48.812;11.762;2023-07-28T09:30:43;4.53;;;3.17;;
22160;SDS011;49035;48.812;11.762;2023-07-28T09:33:14;4.03;;;2.88;;
22160;SDS011;49035;48.812;11.762;2023-07-28T09:35:54;6.88;;;3.33;;
22160;SDS011;49035;48.812;11.762;2023-07-28T09:38:19;4.97;;;3.88;;
22160;SDS011;49035;48.812;11.762;2023-07-28T09:40:47;5.53;;;4.18;;
22160;SDS011;49035;48.812;11.762;2023-07-28T09:43:13;5.80;;;3.72;;
22160;SDS011;49035;48.812;11.762;2023-07-28T09:45:39;5.38;;;4.03;;
22160;SDS011;49035;48.812;11.762;2023-07-28T09:48:07;7.15;;;3.72;;
22160;SDS011;49035;48.812;11.762;2023-07-28T09:50:36;3.83;;;3.20;;
22160;SDS011;49035;48.812;11.762;2023-07-28T09:53:03;3.95;;;3.47;;
22160;SDS011;49035;48.812;11.762;2023-07-28T09:55:29;4.85;;;3.80;;
22160;SDS011;49035;48.812;11.762;2023-07-28T09:57:58;6.28;;;3.13;;
22160;SDS011;49035;48.812;11.762;2023-07-28T10:00:25;7.38;;;3.67;;
22160;SDS011;49035;48.812;11.762;2023-07-28T10:02:51;4.63;;;3.42;;
22160;SDS011;49035;48.812;11.762;2023-07-28T10:05:18;3.83;;;3.20;;
22160;SDS011;49035;48.812;11.762;2023-07-28T10:07:44;7.30;;;3.28;;
22160;SDS011;49035;48.812;11.762;2023-07-28T10:10:12;4.65;;;3.63;;
22160;SDS011;49035;48.812;11.762;2023-07-28T10:12:45;5.70;;;2.72;;
22160;SDS011;49035;48.812;11.762;2023-07-28T10:15:13;4.63;;;3.10;;
22160;SDS011;49035;48.812;11.762;2023-07-28T10:17:44;3.20;;;2.90;;
22160;SDS011;49035;48.812;11.762;2023-07-28T10:23:03;3.85;;;3.13;;
22160;SDS011;49035;48.812;11.762;2023-07-28T10:25:37;3.20;;;2.85;;
22160;SDS011;49035;48.812;11.762;2023-07-28T10:28:05;4.63;;;3.60;;
22160;SDS011;49035;48.812;11.762;2023-07-28T10:30:50;6.05;;;3.30;;
22160;SDS011;49035;48.812;11.762;2023-07-28T10:33:30;3.08;;;2.63;;
22160;SDS011;49035;48.812;11.762;2023-07-28T10:36:17;3.38;;;2.33;;
22160;SDS011;49035;48.812;11.762;2023-07-28T10:44:29;4.50;;;3.20;;
22160;SDS011;49035;48.812;11.762;2023-07-28T10:46:55;4.05;;;2.70;;
22160;SDS011;49035;48.812;11.762;2023-07-28T10:49:21;4.35;;;2.78;;
22160;SDS011;49035;48.812;11.762;2023-07-28T10:51:47;6.30;;;2.78;;
22160;SDS011;49035;48.812;11.762;2023-07-28T10:54:13;2.35;;;2.15;;
22160;SDS011;49035;48.812;11.762;2023-07-28T10:56:41;5.68;;;3.05;;
22160;SDS011;49035;48.812;11.762;2023-07-28T10:59:07;4.38;;;2.85;;
22160;SDS011;49035;48.812;11.762;2023-07-28T11:01:34;6.97;;;3.78;;
22160;SDS011;49035;48.812;11.762;2023-07-28T11:04:07;5.70;;;2.80;;
22160;SDS011;49035;48.812;11.762;2023-07-28T11:06:34;2.85;;;2.53;;
22160;SDS011;49035;48.812;11.762;2023-07-28T11:09:00;7.75;;;2.60;;
22160;SDS011;49035;48.812;11.762;2023-07-28T11:11:26;4.07;;;2.80;;
22160;SDS011;49035;48.812;11.762;2023-07-28T11:13:53;4.20;;;2.67;;
22160;SDS011;49035;48.812;11.762;2023-07-28T11:16:19;3.47;;;2.83;;
22160;SDS011;49035;48.812;11.762;2023-07-28T11:18:46;7.63;;;2.85;;
22160;SDS011;49035;48.812;11.762;2023-07-28T11:21:11;8.15;;;2.70;;
22160;SDS011;49035;48.812;11.762;2023-07-28T11:23:37;4.75;;;3.20;;
22160;SDS011;49035;48.812;11.762;2023-07-28T11:26:04;3.97;;;2.78;;
22160;SDS011;49035;48.812;11.762;2023-07-28T11:28:30;3.92;;;2.85;;
22160;SDS011;49035;48.812;11.762;2023-07-28T11:30:57;2.70;;;2.20;;
22160;SDS011;49035;48.812;11.762;2023-07-28T11:33:24;4.20;;;2.50;;
22160;SDS011;49035;48.812;11.762;2023-07-28T11:35:50;3.35;;;2.47;;
22160;SDS011;49035;48.812;11.762;2023-07-28T11:38:16;5.60;;;3.10;;
22160;SDS011;49035;48.812;11.762;2023-07-28T11:40:42;4.03;;;2.72;;
22160;SDS011;49035;48.812;11.762;2023-07-28T11:43:08;4.05;;;2.60;;
22160;SDS011;49035;48.812;11.762;2023-07-28T11:45:34;5.47;;;3.00;;
22160;SDS011;49035;48.812;11.762;2023-07-28T11:48:00;3.97;;;2.95;;
22160;SDS011;49035;48.812;11.762;2023-07-28T11:50:34;4.55;;;2.85;;
22160;SDS011;49035;48.812;11.762;2023-07-28T11:53:02;3.05;;;2.75;;
22160;SDS011;49035;48.812;11.762;2023-07-28T11:55:28;2.55;;;2.35;;
22160;SDS011;49035;48.812;11.762;2023-07-28T11:57:54;5.68;;;2.50;;
22160;SDS011;49035;48.812;11.762;2023-07-28T12:00:36;4.30;;;2.05;;
22160;SDS011;49035;48.812;11.762;2023-07-28T12:03:05;2.92;;;2.17;;
22160;SDS011;49035;48.812;11.762;2023-07-28T12:05:34;2.45;;;2.10;;
22160;SDS011;49035;48.812;11.762;2023-07-28T12:08:01;2.58;;;1.83;;
22160;SDS011;49035;48.812;11.762;2023-07-28T12:10:28;2.30;;;2.05;;
22160;SDS011;49035;48.812;11.762;2023-07-28T12:12:54;3.70;;;1.90;;
22160;SDS011;49035;48.812;11.762;2023-07-28T12:15:26;2.15;;;1.55;;
22160;SDS011;49035;48.812;11.762;2023-07-28T12:18:13;2.25;;;1.80;;
22160;SDS011;49035;48.812;11.762;2023-07-28T12:20:43;2.35;;;1.70;;
22160;SDS011;49035;48.812;11.762;2023-07-28T12:23:12;3.92;;;1.75;;
22160;SDS011;49035;48.812;11.762;2023-07-28T12:25:38;4.40;;;1.80;;
22160;SDS011;49035;48.812;11.762;2023-07-28T12:28:04;3.60;;;1.75;;
22160;SDS011;49035;48.812;11.762;2023-07-28T12:30:31;2.47;;;1.80;;
22160;SDS011;49035;48.812;11.762;2023-07-28T12:32:57;2.90;;;1.80;;
22160;SDS011;49035;48.812;11.762;2023-07-28T12:35:24;2.55;;;1.30;;
22160;SDS011;49035;48.812;11.762;2023-07-28T12:37:51;3.88;;;1.55;;
22160;SDS011;49035;48.812;11.762;2023-07-28T12:40:17;1.33;;;1.23;;
22160;SDS011;49035;48.812;11.762;2023-07-28T12:42:46;1.55;;;1.10;;
22160;SDS011;49035;48.812;11.762;2023-07-28T12:45:12;3.72;;;1.40;;
22160;SDS011;49035;48.812;11.762;2023-07-28T12:47:40;1.55;;;1.33;;
22160;SDS011;49035;48.812;11.762;2023-07-28T12:50:07;1.73;;;1.27;;
22160;SDS011;49035;48.812;11.762;2023-07-28T12:52:32;1.30;;;1.15;;
22160;SDS011;49035;48.812;11.762;2023-07-28T12:54:58;1.27;;;1.17;;
22160;SDS011;49035;48.812;11.762;2023-07-28T12:57:24;1.63;;;1.15;;
22160;SDS011;49035;48.812;11.762;2023-07-28T12:59:49;1.70;;;1.02;;
22160;SDS011;49035;48.812;11.762;2023-07-28T13:02:15;1.30;;;1.20;;
22160;SDS011;49035;48.812;11.762;2023-07-28T13:04:41;2.13;;;1.35;;
22160;SDS011;49035;48.812;11.762;2023-07-28T13:07:07;1.55;;;1.05;;
22160;SDS011;49035;48.812;11.762;2023-07-28T13:09:33;0.73;;;0.73;;
22160;SDS011;49035;48.812;11.762;2023-07-28T13:11:58;1.38;;;0.70;;
22160;SDS011;49035;48.812;11.762;2023-07-28T13:14:24;1.10;;;1.00;;
22160;SDS011;49035;48.812;11.762;2023-07-28T13:16:49;1.33;;;0.80;;
22160;SDS011;49035;48.812;11.762;2023-07-28T13:19:15;0.85;;;0.80;;
22160;SDS011;49035;48.812;11.762;2023-07-28T13:21:41;3.05;;;0.70;;
22160;SDS011;49035;48.812;11.762;2023-07-28T13:24:07;1.27;;;0.90;;
22160;SDS011;49035;48.812;11.762;2023-07-28T13:26:32;0.73;;;0.63;;
22160;SDS011;49035;48.812;11.762;2023-07-28T13:28:58;2.83;;;0.68;;
22160;SDS011;49035;48.812;11.762;2023-07-28T13:31:26;0.57;;;0.57;;
22160;SDS011;49035;48.812;11.762;2023-07-28T13:33:52;0.80;;;0.60;;
22160;SDS011;49035;48.812;11.762;2023-07-28T13:36:18;1.00;;;0.70;;
22160;SDS011;49035;48.812;11.762;2023-07-28T13:38:44;0.55;;;0.55;;
22160;SDS011;49035;48.812;11.762;2023-07-28T13:41:09;0.95;;;0.65;;
22160;SDS011;49035;48.812;11.762;2023-07-28T13:43:35;0.43;;;0.43;;
22160;SDS011;49035;48.812;11.762;2023-07-28T13:46:03;0.60;;;0.60;;
22160;SDS011;49035;48.812;11.762;2023-07-28T13:48:29;0.70;;;0.63;;
22160;SDS011;49035;48.812;11.762;2023-07-28T13:50:56;0.82;;;0.60;;
22160;SDS011;49035;48.812;11.762;2023-07-28T13:53:21;0.75;;;0.55;;
22160;SDS011;49035;48.812;11.762;2023-07-28T13:55:48;0.45;;;0.45;;
22160;SDS011;49035;48.812;11.762;2023-07-28T13:58:13;0.70;;;0.50;;
22160;SDS011;49035;48.812;11.762;2023-07-28T14:00:39;3.70;;;0.82;;
22160;SDS011;49035;48.812;11.762;2023-07-28T14:03:04;0.60;;;0.60;;
22160;SDS011;49035;48.812;11.762;2023-07-28T14:05:30;0.70;;;0.60;;
22160;SDS011;49035;48.812;11.762;2023-07-28T14:07:58;0.50;;;0.40;;
22160;SDS011;49035;48.812;11.762;2023-07-28T14:10:24;0.47;;;0.47;;
22160;SDS011;49035;48.812;11.762;2023-07-28T14:12:49;1.23;;;0.70;;
22160;SDS011;49035;48.812;11.762;2023-07-28T14:15:15;4.25;;;0.70;;
22160;SDS011;49035;48.812;11.762;2023-07-28T14:17:41;0.60;;;0.60;;
22160;SDS011;49035;48.812;11.762;2023-07-28T14:20:06;0.70;;;0.70;;
22160;SDS011;49035;48.812;11.762;2023-07-28T14:22:34;0.85;;;0.70;;
22160;SDS011;49035;48.812;11.762;2023-07-28T14:25:00;0.60;;;0.60;;
22160;SDS011;49035;48.812;11.762;2023-07-28T14:27:25;1.73;;;0.52;;
22160;SDS011;49035;48.812;11.762;2023-07-28T14:29:51;2.10;;;0.80;;
22160;SDS011;49035;48.812;11.762;2023-07-28T14:32:17;0.82;;;0.60;;
22160;SDS011;49035;48.812;11.762;2023-07-28T14:34:42;0.70;;;0.50;;
22160;SDS011;49035;48.812;11.762;2023-07-28T14:37:08;0.60;;;0.60;;
22160;SDS011;49035;48.812;11.762;2023-07-28T14:39:33;4.38;;;0.63;;
22160;SDS011;49035;48.812;11.762;2023-07-28T14:41:59;1.90;;;0.50;;